Аэропорт: Ровно. Ровно

ICAO: UKLR

METAR:
2019/01/21 15:00
UKLR 211500Z 31003MPS 9999 BKN030 M04/M09 Q1021 NOSIG
METAR:
2018/12/15 06:45
TAF 
      AMD TAF 
      AMD UKLR 150640Z 1506/1518 05003MPS 0600 FZFG VV002 TXM01/1512Z TNM03/1506Z 
      BECMG 1509/1510 2100 BR OVC007 
      TEMPO 1510/1515 1500 -SN OVC005